Terminal Aerodrome Forecast
Issued by NWS

Home | Current Version | Previous Version | Text Only | Print | Product List | Glossary On
Versions: 1 2 3 4 5 6 7 8 9 10 11 12 13
000
FTUS43 KDTX 040533
TAFDET
TAF
KDET 040533Z 0406/0506 19006KT P6SM BKN100 OVC200
     FM041500 22012G20KT P6SM BKN050 OVC100
      TEMPO 0420/0424 3SM -SHRA OVC025
     FM050200 02007KT P6SM SCT025 OVC050=

USA.gov is the U.S. government's official web portal to all federal, state and local government web resources and services.